Time;durP1;ratioP1;P1;durP2;ratioP2;P2;SDS_P1;SDS_P2;PMS_P1;PMS_P2;Temp;Humidity;BMP_temperature;BMP_pressure;BME280_temperature;BME280_humidity;BME280_pressure;Samples;Min_cycle;Max_cycle;Signal;HPM_P1;HPM_P2
2022/11/11 00:01:15;;;;;;;12.13;4.00;;;;;;;15.41;100.00;102002.81;2104755;28;20491;-73
2022/11/11 00:02:58;;;;;;;9.68;3.80;;;;;;;15.37;100.00;101998.31;2096393;28;20097;-73
2022/11/11 00:04:39;;;;;;;10.18;3.63;;;;;;;15.34;100.00;101997.38;2096225;28;20056;-73
2022/11/11 00:06:20;;;;;;;13.07;3.95;;;;;;;15.30;100.00;102001.75;2088237;28;20644;-73
2022/11/11 00:08:01;;;;;;;13.52;4.32;;;;;;;15.33;100.00;101992.94;2088304;28;20095;-72
2022/11/11 00:09:42;;;;;;;10.00;4.35;;;;;;;15.41;100.00;101992.19;2099651;28;20040;-74
2022/11/11 00:11:23;;;;;;;14.13;4.47;;;;;;;15.54;100.00;101987.97;2088647;28;20621;-73
2022/11/11 00:13:05;;;;;;;12.05;4.32;;;;;;;15.64;100.00;101988.97;2096726;28;20366;-74
2022/11/11 00:14:46;;;;;;;12.27;3.83;;;;;;;15.71;100.00;101991.75;2088618;28;20136;-74
2022/11/11 00:25:04;;;;;;;10.32;3.28;;;;;;;15.75;100.00;101985.59;2096510;28;20094;-74
2022/11/11 00:26:27;;;;;;;19.73;5.68;;;;;;;15.83;100.00;101988.38;2087574;28;20065;-73
2022/11/11 00:28:08;;;;;;;15.98;5.40;;;;;;;15.82;100.00;101991.91;2096399;28;20041;-73
2022/11/11 00:29:51;;;;;;;11.18;4.35;;;;;;;15.80;100.00;101985.69;2088212;28;20449;-74
2022/11/11 00:31:32;;;;;;;14.63;4.70;;;;;;;15.77;100.00;101991.84;2096383;28;20275;-74
2022/11/11 00:33:12;;;;;;;15.30;4.85;;;;;;;15.77;100.00;101989.19;2087971;28;20053;-73
2022/11/11 00:36:54;;;;;;;15.60;4.78;;;;;;;15.80;100.00;101993.66;2094242;28;20488;-73
2022/11/11 00:38:48;;;;;;;13.05;4.28;;;;;;;15.79;100.00;101990.13;2089232;28;20574;-73
2022/11/11 00:40:28;;;;;;;12.40;4.30;;;;;;;15.76;100.00;101986.50;2092844;28;20449;-73
2022/11/11 00:42:09;;;;;;;8.90;3.50;;;;;;;15.72;100.00;101988.22;2104674;28;20503;-73
2022/11/11 00:43:50;;;;;;;11.05;4.13;;;;;;;15.67;100.00;101987.28;2096968;28;20370;-72
2022/11/11 00:45:31;;;;;;;12.00;3.90;;;;;;;15.60;100.00;101989.81;2096114;28;20098;-72
2022/11/11 00:51:10;;;;;;;12.40;4.13;;;;;;;15.59;100.00;101980.94;2101158;28;20149;-72
2022/11/11 00:52:51;;;;;;;;;;;;;;;15.59;100.00;101980.03;2088854;28;20049;-73
2022/11/11 00:54:32;;;;;;;12.75;4.57;;;;;;;15.64;100.00;101979.25;2096429;28;20365;-73
2022/11/11 00:56:13;;;;;;;16.63;6.50;;;;;;;15.69;100.00;101977.53;2096348;28;20060;-72
2022/11/11 00:57:54;;;;;;;10.57;4.88;;;;;;;15.74;100.00;101978.50;2101737;28;20040;-72
2022/11/11 00:59:39;;;;;;;13.15;4.55;;;;;;;15.77;100.00;101983.84;2091256;28;20098;-73
2022/11/11 01:01:19;;;;;;;15.55;6.00;;;;;;;15.83;100.00;101980.38;2088090;28;20053;-72
2022/11/11 01:03:00;;;;;;;40.78;16.48;;;;;;;15.87;100.00;101974.25;2096173;28;20048;-72
2022/11/11 01:04:41;;;;;;;15.80;6.80;;;;;;;15.94;100.00;101977.00;2096345;28;20048;-73
2022/11/11 01:06:23;;;;;;;14.82;5.63;;;;;;;16.01;100.00;101971.75;2095975;28;20051;-73
2022/11/11 01:08:05;;;;;;;18.10;4.95;;;;;;;16.05;100.00;101974.47;2095919;28;20045;-73
2022/11/11 01:09:46;;;;;;;12.40;5.27;;;;;;;16.09;100.00;101972.72;2093411;28;20052;-72
2022/11/11 01:11:26;;;;;;;13.98;5.05;;;;;;;16.11;100.00;101968.31;2101078;28;20280;-72
2022/11/11 01:13:14;;;;;;;14.23;4.45;;;;;;;16.10;100.00;101971.84;2088981;28;20056;-72
2022/11/11 01:14:55;;;;;;;14.05;5.20;;;;;;;16.06;100.00;101972.72;2089533;28;20037;-72
2022/11/11 01:16:36;;;;;;;13.05;4.45;;;;;;;16.01;100.00;101974.44;2097826;28;20531;-72
2022/11/11 01:18:19;;;;;;;10.93;4.57;;;;;;;16.01;100.00;101974.44;2089560;28;20389;-72
2022/11/11 01:20:00;;;;;;;14.55;5.30;;;;;;;16.01;100.00;101972.66;2103719;28;20063;-72
2022/11/11 01:21:42;;;;;;;13.05;4.50;;;;;;;16.06;100.00;101973.59;2094944;28;20446;-72
2022/11/11 01:23:23;;;;;;;11.27;4.30;;;;;;;16.07;100.00;101972.75;2098062;28;20083;-72
2022/11/11 01:25:04;;;;;;;9.85;4.45;;;;;;;16.09;100.00;101970.97;2099914;28;20048;-72
2022/11/11 01:26:45;;;;;;;12.98;4.60;;;;;;;16.12;100.00;101965.69;2097395;28;20044;-72
2022/11/11 01:28:26;;;;;;;10.80;4.68;;;;;;;16.14;100.00;101968.38;2106325;28;20043;-72
2022/11/11 01:30:12;;;;;;;13.48;4.35;;;;;;;16.13;100.00;101975.47;2097511;28;20076;-72
2022/11/11 01:31:53;;;;;;;11.65;4.10;;;;;;;16.12;100.00;101971.00;2106172;28;20048;-72
2022/11/11 01:33:35;;;;;;;13.50;4.50;;;;;;;16.12;100.00;101970.13;2096776;28;20445;-72
2022/11/11 01:35:16;;;;;;;10.30;5.00;;;;;;;16.12;100.00;101967.47;2097909;28;20060;-73
2022/11/11 01:36:59;;;;;;;21.75;13.55;;;;;;;16.10;100.00;101967.44;2089640;28;20286;-74
2022/11/11 01:38:41;;;;;;;;;;;;;;;16.01;100.00;101966.44;2096940;28;20052;-73
2022/11/11 01:40:22;;;;;;;17.48;10.50;;;;;;;15.95;100.00;101978.78;2099540;28;19920;-74
2022/11/11 01:42:04;;;;;;;13.05;5.55;;;;;;;15.93;100.00;101975.22;2106041;28;20036;-73
2022/11/11 01:43:45;;;;;;;13.10;5.22;;;;;;;15.89;100.00;101978.69;2106120;28;20071;-72
2022/11/11 01:45:47;;;;;;;15.75;5.20;;;;;;;15.86;100.00;101983.09;2097532;28;20044;-72
2022/11/11 01:49:17;;;;;;;11.25;4.03;;;;;;;15.87;100.00;101983.13;2106196;28;20070;-73
2022/11/11 01:49:32;;;;;;;10.05;3.97;;;;;;;15.91;100.00;101990.28;2089168;28;20148;-72
2022/11/11 01:51:18;;;;;;;14.57;4.70;;;;;;;15.97;100.00;101985.91;2106350;28;20557;-72
2022/11/11 01:53:01;;;;;;;12.45;3.90;;;;;;;15.95;100.00;101981.44;2097666;28;20045;-72
2022/11/11 01:54:47;;;;;;;10.57;4.18;;;;;;;15.93;100.00;101983.22;2097491;28;20056;-72
2022/11/11 01:56:27;;;;;;;15.85;4.15;;;;;;;15.87;100.00;101982.25;2097329;28;20402;-72
2022/11/11 01:58:13;;;;;;;12.90;5.03;;;;;;;15.82;100.00;101987.47;2097389;28;20036;-72
2022/11/11 01:59:59;;;;;;;10.02;4.15;;;;;;;15.76;100.00;101982.06;2089828;28;20099;-72
2022/11/11 02:01:40;;;;;;;14.63;4.22;;;;;;;15.72;100.00;101985.56;2101391;28;20083;-72
2022/11/11 02:03:24;;;;;;;9.23;4.28;;;;;;;15.74;100.00;101986.50;2097279;28;20544;-73
2022/11/11 02:07:14;;;;;;;17.33;5.18;;;;;;;15.82;100.00;101978.59;2063954;28;20042;-72
2022/11/11 02:08:57;;;;;;;11.85;4.40;;;;;;;15.85;100.00;101981.31;2099350;28;20044;-72
2022/11/11 02:10:40;;;;;;;13.23;4.20;;;;;;;15.83;100.00;101983.94;2102047;28;20040;-73
2022/11/11 02:14:38;;;;;;;12.98;4.50;;;;;;;15.77;100.00;101982.97;2106041;28;20052;-73
2022/11/11 02:16:19;;;;;;;11.57;4.55;;;;;;;15.72;100.00;101980.25;2105948;28;20047;-73
2022/11/11 02:18:01;;;;;;;12.55;4.82;;;;;;;15.64;100.00;101973.91;2105738;28;20148;-72
2022/11/11 02:19:47;;;;;;;13.68;4.72;;;;;;;15.59;100.00;101978.28;2105845;28;20052;-72
2022/11/11 02:21:33;;;;;;;12.73;4.75;;;;;;;15.51;100.00;101982.56;2099708;28;20093;-72
2022/11/11 02:23:19;;;;;;;13.23;4.68;;;;;;;15.42;100.00;101979.78;2097405;28;20052;-72
2022/11/11 02:25:06;;;;;;;11.07;4.90;;;;;;;15.33;100.00;101984.94;2087960;28;20049;-72
2022/11/11 02:26:47;;;;;;;16.67;5.80;;;;;;;15.25;100.00;101990.13;2097431;28;20665;-72
2022/11/11 02:28:29;;;;;;;14.55;5.22;;;;;;;15.21;100.00;101982.09;2096603;28;20048;-73
2022/11/11 02:30:14;;;;;;;13.80;5.05;;;;;;;15.16;100.00;101982.03;2097067;28;20056;-72
2022/11/11 02:31:56;;;;;;;15.30;6.05;;;;;;;15.12;100.00;101980.16;2097107;28;20052;-72
2022/11/11 02:33:36;;;;;;;12.65;5.28;;;;;;;15.10;100.00;101985.44;2089113;28;20041;-74
2022/11/11 02:35:19;;;;;;;12.45;4.95;;;;;;;15.18;100.00;101980.25;2104789;28;20052;-73
2022/11/11 02:37:02;;;;;;;12.65;5.93;;;;;;;15.18;100.00;101985.59;2095840;28;20048;-74
2022/11/11 02:38:44;;;;;;;17.63;5.60;;;;;;;15.15;100.00;101982.88;2097226;28;20076;-73
2022/11/11 02:40:33;;;;;;;16.85;4.90;;;;;;;15.15;100.00;101981.13;2094127;28;20547;-73
2022/11/11 02:42:15;;;;;;;13.52;5.72;;;;;;;15.20;100.00;101985.63;2097497;28;20078;-72
2022/11/11 02:43:56;;;;;;;17.50;7.10;;;;;;;15.21;100.00;101979.44;2096963;28;20045;-73
2022/11/11 02:45:36;;;;;;;29.60;12.93;;;;;;;15.19;100.00;101986.47;2097406;28;20056;-72
2022/11/11 02:47:17;;;;;;;17.02;6.93;;;;;;;15.19;100.00;101982.06;2089323;28;20068;-73
2022/11/11 02:48:58;;;;;;;12.85;5.75;;;;;;;15.22;100.00;101981.22;2096875;28;20072;-72
2022/11/11 02:50:39;;;;;;;12.25;5.10;;;;;;;15.19;100.00;101976.75;2093542;28;20526;-72
2022/11/11 02:52:20;;;;;;;12.70;5.05;;;;;;;15.10;100.00;101977.47;2096901;28;20045;-72
2022/11/11 02:54:00;;;;;;;13.10;5.13;;;;;;;15.07;100.00;101979.19;2097165;28;20032;-72
2022/11/11 02:55:43;;;;;;;13.70;6.32;;;;;;;15.06;100.00;101972.97;2097462;28;20149;-73
2022/11/11 02:57:22;;;;;;;;;;;;;;;14.98;100.00;101974.59;2089525;28;20053;-72
2022/11/11 02:59:03;;;;;;;12.27;6.45;;;;;;;14.98;100.00;101982.59;2097432;28;19920;-72
2022/11/11 03:00:44;;;;;;;15.20;5.40;;;;;;;15.02;100.00;101979.13;2096340;28;20054;-73
2022/11/11 03:02:26;;;;;;;12.98;5.13;;;;;;;15.09;100.00;101986.34;2097134;28;20048;-72
2022/11/11 03:04:07;;;;;;;14.48;5.03;;;;;;;15.14;100.00;101984.66;2102584;28;20063;-73
2022/11/11 03:05:48;;;;;;;14.32;6.15;;;;;;;15.14;100.00;101986.41;2089217;28;20041;-73
2022/11/11 03:07:29;;;;;;;16.67;6.50;;;;;;;15.13;100.00;101990.84;2096769;28;20048;-73
2022/11/11 03:09:11;;;;;;;13.63;5.70;;;;;;;15.13;100.00;101992.59;2088461;28;20056;-73
2022/11/11 03:10:54;;;;;;;13.38;5.80;;;;;;;15.12;100.00;101989.03;2100245;28;20455;-73
2022/11/11 03:12:34;;;;;;;12.70;5.75;;;;;;;15.12;100.00;101990.81;2097177;28;20147;-72
2022/11/11 03:14:14;;;;;;;11.15;5.00;;;;;;;15.13;100.00;101992.59;2105067;28;20122;-72
2022/11/11 03:15:55;;;;;;;12.18;4.63;;;;;;;15.22;100.00;101989.22;2096852;28;20131;-72
2022/11/11 03:17:41;;;;;;;14.52;4.95;;;;;;;15.28;100.00;101979.56;2096838;28;20051;-72
2022/11/11 03:19:21;;;;;;;11.55;5.18;;;;;;;15.35;100.00;101983.22;2098219;28;20531;-72
2022/11/11 03:21:04;;;;;;;8.95;4.68;;;;;;;15.35;100.00;101985.88;2096360;28;20211;-73
2022/11/11 03:22:57;;;;;;;14.45;4.35;;;;;;;15.32;100.00;101983.16;2105254;28;20059;-72
2022/11/11 03:26:39;;;;;;;12.38;4.28;;;;;;;15.21;100.00;101987.41;2068450;28;20136;-72
2022/11/11 03:28:23;;;;;;;15.23;4.85;;;;;;;15.20;100.00;101980.28;2090438;28;20402;-73
2022/11/11 03:30:05;;;;;;;10.68;4.40;;;;;;;15.19;100.00;101984.72;2095316;28;20052;-72
2022/11/11 03:31:46;;;;;;;11.57;4.45;;;;;;;15.16;100.00;101982.88;2097015;28;20388;-74
2022/11/11 03:33:27;;;;;;;11.32;4.18;;;;;;;15.17;100.00;101981.13;2096839;28;20060;-72
2022/11/11 03:35:09;;;;;;;12.00;4.45;;;;;;;15.22;100.00;101983.88;2095433;28;20079;-72
2022/11/11 03:38:48;;;;;;;11.43;4.47;;;;;;;15.34;100.00;101984.06;2088299;28;20053;-72
2022/11/11 03:40:28;;;;;;;9.43;4.22;;;;;;;15.40;100.00;101982.41;2097650;28;20047;-71
2022/11/11 03:42:11;;;;;;;8.27;4.20;;;;;;;15.44;100.00;101980.66;2095118;28;20397;-72
2022/11/11 03:43:52;;;;;;;11.95;3.78;;;;;;;15.46;100.00;101982.50;2097974;28;20055;-72
2022/11/11 03:45:31;;;;;;;13.68;5.90;;;;;;;15.46;100.00;101982.50;2095730;28;20044;-72
2022/11/11 03:47:15;;;;;;;11.75;7.50;;;;;;;15.42;100.00;101983.34;2096824;28;20123;-72
2022/11/11 03:48:55;;;;;;;10.63;5.00;;;;;;;15.34;100.00;101995.63;2104579;28;20385;-72
2022/11/11 03:50:35;;;;;;;12.48;4.65;;;;;;;15.25;100.00;101992.78;2096815;28;20086;-72
2022/11/11 03:52:16;;;;;;;10.02;4.20;;;;;;;15.15;100.00;101993.53;2096744;28;20516;-72
2022/11/11 03:53:56;;;;;;;9.55;4.85;;;;;;;15.06;100.00;101991.59;2092523;28;20057;-72
2022/11/11 03:55:37;;;;;;;14.57;5.18;;;;;;;14.99;100.00;101996.78;2095993;28;20144;-72
2022/11/11 03:57:31;;;;;;;14.63;5.32;;;;;;;14.93;100.00;101991.34;2095973;28;20052;-72
2022/11/11 03:59:12;;;;;;;12.07;4.53;;;;;;;14.87;100.00;101997.47;2095972;28;20060;-72
2022/11/11 04:00:53;;;;;;;14.95;5.18;;;;;;;14.84;100.00;101993.84;2098399;28;20040;-72
2022/11/11 04:10:24;;;;;;;13.10;4.97;;;;;;;14.60;100.00;101996.97;2096294;28;20072;-72
2022/11/11 04:12:06;;;;;;;12.80;5.88;;;;;;;14.60;100.00;101994.28;2104792;28;20044;-73
2022/11/11 04:16:04;;;;;;;13.82;5.07;;;;;;;14.55;100.00;101993.31;2097680;28;20147;-72
2022/11/11 04:17:45;;;;;;;14.50;6.30;;;;;;;14.51;100.00;101994.09;2104256;28;20667;-72
2022/11/11 04:21:42;;;;;;;9.68;5.25;;;;;;;14.39;100.00;101997.44;2096027;28;20143;-73
2022/11/11 04:23:22;;;;;;;14.77;5.20;;;;;;;14.33;100.00;102000.84;2102685;28;20139;-73
2022/11/11 04:27:03;;;;;;;11.85;5.60;;;;;;;14.30;100.00;102003.44;2088452;28;20383;-72
2022/11/11 04:30:44;;;;;;;15.02;7.28;;;;;;;14.24;100.00;102011.25;2093555;28;20052;-73
2022/11/11 04:34:22;;;;;;;17.10;8.27;;;;;;;14.21;100.00;102013.88;2096628;28;19920;-73
2022/11/11 04:36:04;;;;;;;12.73;5.65;;;;;;;14.20;100.00;102009.41;2098204;28;20051;-73
2022/11/11 04:37:48;;;;;;;11.85;5.57;;;;;;;14.19;100.00;102007.63;2101530;28;20044;-73
2022/11/11 04:41:26;;;;;;;10.63;5.13;;;;;;;14.14;100.00;102006.63;2096502;28;20384;-73
2022/11/11 04:43:07;;;;;;;17.02;5.80;;;;;;;14.14;100.00;102009.28;2093711;28;20052;-73
2022/11/11 04:46:46;;;;;;;12.90;5.95;;;;;;;14.15;100.00;102019.06;2103092;28;20028;-73
2022/11/11 04:48:29;;;;;;;16.60;7.50;;;;;;;14.18;100.00;102019.09;2097426;28;20056;-72
2022/11/11 04:50:10;;;;;;;16.80;7.65;;;;;;;14.21;100.00;102020.94;2096257;28;20056;-72
2022/11/11 04:53:49;;;;;;;15.93;6.28;;;;;;;14.27;100.00;102016.66;2104373;28;20048;-73
2022/11/11 04:57:28;;;;;;;8.07;4.75;;;;;;;14.32;100.00;102022.94;2101196;28;20114;-73
2022/11/11 04:59:19;;;;;;;13.43;4.75;;;;;;;14.36;100.00;102019.50;2092735;28;20052;-72
2022/11/11 05:01:00;;;;;;;17.75;5.63;;;;;;;14.37;100.00;102023.06;2093953;28;20048;-73
2022/11/11 05:04:40;;;;;;;13.70;5.53;;;;;;;14.38;100.00;102022.19;2087892;28;20136;-73
2022/11/11 05:10:18;;;;;;;17.08;5.50;;;;;;;14.45;100.00;102023.22;2096817;28;20064;-72
2022/11/11 05:11:59;;;;;;;14.32;5.75;;;;;;;14.48;100.00;102023.31;2092772;28;20404;-73
2022/11/11 05:21:48;;;;;;;15.07;5.97;;;;;;;14.55;100.00;102023.44;2096415;28;20047;-73
2022/11/11 05:25:29;;;;;;;13.18;6.15;;;;;;;14.62;100.00;102032.44;2094005;28;20492;-72
2022/11/11 05:27:09;;;;;;;21.80;7.90;;;;;;;14.62;100.00;102027.13;2096015;28;20050;-72
2022/11/11 05:28:50;;;;;;;14.57;7.57;;;;;;;14.62;100.00;102032.44;2095928;28;20532;-73
2022/11/11 05:30:31;;;;;;;18.77;6.68;;;;;;;14.63;100.00;102039.56;2088087;28;20323;-73
2022/11/11 05:32:17;;;;;;;17.70;7.88;;;;;;;14.64;100.00;102036.00;2092229;28;20055;-72
2022/11/11 05:33:58;;;;;;;17.30;7.22;;;;;;;14.65;100.00;102038.69;2084875;28;20087;-73
2022/11/11 05:35:41;;;;;;;17.52;6.57;;;;;;;14.67;100.00;102050.25;2102917;28;20093;-72
2022/11/11 05:37:22;;;;;;;16.10;5.97;;;;;;;14.71;100.00;102037.91;2097726;28;20578;-72
2022/11/11 05:39:02;;;;;;;14.05;5.75;;;;;;;14.81;100.00;102045.22;2094830;28;20137;-72
2022/11/11 05:40:43;;;;;;;14.13;5.40;;;;;;;14.93;100.00;102044.53;2096047;28;20110;-73
2022/11/11 05:42:23;;;;;;;12.65;4.82;;;;;;;15.07;100.00;102054.56;2099276;28;20058;-73
2022/11/11 05:44:05;;;;;;;11.48;4.03;;;;;;;15.15;100.00;102044.97;2096033;28;20053;-72
2022/11/11 05:45:45;;;;;;;9.25;4.63;;;;;;;15.21;100.00;102051.25;2096187;28;20401;-72
2022/11/11 05:47:27;;;;;;;16.00;6.95;;;;;;;15.28;100.00;102053.16;2100064;28;20089;-72
2022/11/11 05:49:17;;;;;;;11.52;5.47;;;;;;;15.32;100.00;102050.56;2097822;28;20048;-72
2022/11/11 05:51:00;;;;;;;15.20;4.93;;;;;;;15.43;100.00;102045.41;2102203;28;20043;-72
2022/11/11 05:52:47;;;;;;;;;;;;;;;15.49;100.00;102046.41;2097569;28;20143;-72
2022/11/11 05:54:28;;;;;;;14.38;6.60;;;;;;;15.57;100.00;102049.22;2087797;28;19924;-72
2022/11/11 05:56:09;;;;;;;15.00;5.55;;;;;;;15.64;100.00;102060.88;2099683;28;20382;-72
2022/11/11 05:57:50;;;;;;;11.32;4.75;;;;;;;15.67;100.00;102045.84;2087963;28;20045;-72
2022/11/11 05:59:31;;;;;;;12.77;5.20;;;;;;;15.73;100.00;102053.94;2097138;28;20086;-72
2022/11/11 06:01:13;;;;;;;13.35;7.20;;;;;;;15.82;100.00;102054.03;2091702;28;20055;-73
2022/11/11 06:02:53;;;;;;;13.05;6.78;;;;;;;15.92;100.00;102053.31;2096536;28;20055;-72
2022/11/11 06:04:34;;;;;;;18.15;11.98;;;;;;;16.09;100.00;102055.31;2097540;28;20071;-72
2022/11/11 06:06:17;;;;;;;15.63;12.20;;;;;;;16.21;100.00;102056.38;2089529;28;20045;-72
2022/11/11 06:07:58;;;;;;;13.93;8.25;;;;;;;16.31;100.00;102058.31;2090396;28;20063;-73
2022/11/11 06:09:39;;;;;;;14.38;8.45;;;;;;;16.42;100.00;102055.75;2096963;28;20098;-72
2022/11/11 06:11:18;;;;;;;15.45;6.93;;;;;;;16.50;100.00;102053.19;2095712;28;20059;-72
2022/11/11 06:13:04;;;;;;;22.42;7.55;;;;;;;16.54;100.00;102044.38;2097145;28;20059;-72
2022/11/11 06:14:44;;;;;;;13.70;5.68;;;;;;;16.64;100.00;102049.84;2097904;28;20099;-73
2022/11/11 06:16:26;;;;;;;14.65;5.75;;;;;;;16.82;100.00;102053.59;2102069;28;20032;-72
2022/11/11 06:18:07;;;;;;;16.58;6.05;;;;;;;16.93;100.00;102052.84;2096755;28;20775;-73
2022/11/11 06:19:48;;;;;;;12.45;6.07;;;;;;;16.98;100.00;102047.56;2097196;28;20115;-72
2022/11/11 06:21:31;;;;;;;14.57;6.53;;;;;;;17.06;100.00;102056.53;2105608;28;20052;-72
2022/11/11 06:23:12;;;;;;;14.35;8.05;;;;;;;17.17;100.00;102049.50;2097587;28;20076;-72
2022/11/11 06:26:11;;;;;;;12.75;5.80;;;;;;;17.31;100.00;102058.53;2097534;28;20041;-72
2022/11/11 06:26:54;;;;;;;22.35;6.45;;;;;;;17.38;100.00;102060.41;2089003;28;20144;-73
2022/11/11 06:28:36;;;;;;;10.98;5.47;;;;;;;17.36;100.00;102062.16;2097224;28;20523;-74
2022/11/11 06:30:17;;;;;;;16.52;6.35;;;;;;;17.29;100.00;102060.28;2086058;28;20528;-73
2022/11/11 06:31:58;;;;;;;15.43;5.03;;;;;;;17.26;100.00;102070.06;2105054;28;20044;-72
2022/11/11 06:33:38;;;;;;;17.48;6.18;;;;;;;17.26;100.00;102064.72;2089808;28;20139;-73
2022/11/11 06:35:19;;;;;;;13.15;5.68;;;;;;;17.27;100.00;102072.72;2102383;28;20150;-73
2022/11/11 06:37:01;;;;;;;17.77;5.35;;;;;;;17.28;100.00;102071.84;2090197;28;20056;-73
2022/11/11 06:38:43;;;;;;;13.50;4.60;;;;;;;17.34;100.00;102079.00;2096956;28;20081;-72
2022/11/11 06:40:24;;;;;;;9.45;4.18;;;;;;;17.41;100.00;102071.06;2089072;28;20057;-73
2022/11/11 06:42:05;;;;;;;11.55;4.22;;;;;;;17.45;100.00;102069.34;2097345;28;20058;-73
2022/11/11 06:43:46;;;;;;;11.02;5.25;;;;;;;17.41;100.00;102076.41;2091484;28;20045;-72
2022/11/11 06:45:29;;;;;;;14.07;4.50;;;;;;;17.34;100.00;102077.25;2106629;28;20089;-72
2022/11/11 06:47:10;;;;;;;18.33;5.55;;;;;;;17.29;100.00;102075.41;2097130;28;20040;-73
2022/11/11 06:48:51;;;;;;;11.77;4.55;;;;;;;17.28;100.00;102078.97;2092086;28;20152;-73
2022/11/11 06:50:33;;;;;;;14.10;4.75;;;;;;;17.31;100.00;102077.22;2097724;28;20661;-73
2022/11/11 06:52:15;;;;;;;11.02;4.20;;;;;;;17.46;100.00;102073.78;2088971;28;20180;-72
2022/11/11 06:53:56;;;;;;;14.95;4.50;;;;;;;17.63;100.00;102081.97;2095746;28;20059;-73
2022/11/11 06:55:37;;;;;;;10.63;3.92;;;;;;;17.76;100.00;102079.41;2096652;28;20097;-73
2022/11/11 06:57:19;;;;;;;10.20;4.40;;;;;;;17.84;100.00;102079.47;2096598;28;20048;-73
2022/11/11 06:59:00;;;;;;;10.68;4.32;;;;;;;17.99;100.00;102087.56;2096298;28;20055;-73
2022/11/11 07:00:42;;;;;;;11.95;4.53;;;;;;;18.20;100.00;102079.69;2097808;28;20534;-73
2022/11/11 07:02:23;;;;;;;11.25;5.40;;;;;;;18.47;100.00;102080.72;2094967;28;20043;-73
2022/11/11 07:04:03;;;;;;;8.90;4.45;;;;;;;18.51;100.00;102082.53;2096251;28;20052;-73
2022/11/11 07:05:45;;;;;;;10.85;3.78;;;;;;;18.66;100.00;102086.16;2090223;28;20089;-73
2022/11/11 07:07:28;;;;;;;9.35;3.78;;;;;;;18.70;100.00;102079.06;2104896;28;20372;-73
2022/11/11 07:09:10;;;;;;;8.70;3.92;;;;;;;18.76;100.00;102079.09;2088784;28;20096;-74
2022/11/11 07:10:52;;;;;;;10.43;3.80;;;;;;;18.83;100.00;102077.31;2095857;28;20106;-73
2022/11/11 07:12:33;;;;;;;9.55;4.00;;;;;;;18.86;100.00;102078.22;2101559;28;20047;-74
2022/11/11 07:14:14;;;;;;;9.35;4.03;;;;;;;18.80;100.00;102083.53;2099542;28;20053;-74
2022/11/11 07:15:55;;;;;;;13.23;4.68;;;;;;;18.66;100.00;102080.81;2105232;28;20067;-74
2022/11/11 07:17:36;;;;;;;11.13;4.43;;;;;;;18.46;100.00;102087.84;2102901;28;20066;-74
2022/11/11 07:19:17;;;;;;;13.50;5.35;;;;;;;18.32;100.00;102078.84;2105479;28;20059;-74
2022/11/11 07:20:58;;;;;;;13.25;5.57;;;;;;;18.29;100.00;102081.53;2105512;28;20036;-74
2022/11/11 07:22:40;;;;;;;10.48;4.75;;;;;;;18.45;100.00;102086.03;2096118;28;20032;-74
2022/11/11 07:24:21;;;;;;;11.18;3.83;;;;;;;19.02;100.00;102082.72;2096796;28;20064;-74
2022/11/11 07:26:02;;;;;;;13.20;4.50;;;;;;;19.49;100.00;102071.19;2088774;28;20049;-74
2022/11/11 07:27:43;;;;;;;8.50;3.78;;;;;;;19.60;100.00;102082.81;2096714;28;20074;-74
2022/11/11 07:29:24;;;;;;;12.30;4.32;;;;;;;19.53;100.00;102086.38;2088715;28;20053;-74
2022/11/11 07:31:06;;;;;;;11.67;3.57;;;;;;;19.37;100.00;102076.50;2096826;28;20151;-74
2022/11/11 07:32:48;;;;;;;10.18;4.25;;;;;;;19.14;100.00;102076.50;2100455;28;20342;-74
2022/11/11 07:34:29;;;;;;;6.60;3.65;;;;;;;18.90;100.00;102082.69;2105150;28;20043;-74
2022/11/11 07:36:10;;;;;;;8.82;3.70;;;;;;;18.66;100.00;102083.50;2105338;28;20105;-74
2022/11/11 07:37:53;;;;;;;8.82;4.50;;;;;;;18.59;100.00;102089.72;2105177;28;20048;-74
2022/11/11 07:39:33;;;;;;;13.88;4.90;;;;;;;18.89;100.00;102096.97;2105194;28;20056;-74
2022/11/11 07:41:14;;;;;;;11.27;4.18;;;;;;;19.33;100.00;102094.38;2104867;28;20395;-74
2022/11/11 07:42:55;;;;;;;10.10;3.95;;;;;;;19.75;100.00;102101.56;2105218;28;20036;-74
2022/11/11 07:44:36;;;;;;;9.50;3.38;;;;;;;20.15;100.00;102101.50;2102289;28;20105;-74
2022/11/11 07:46:17;;;;;;;9.98;3.42;;;;;;;20.61;100.00;102097.78;2096776;28;20049;-74
2022/11/11 07:47:58;;;;;;;9.38;3.83;;;;;;;21.09;100.00;102091.25;2096439;28;20130;-74
2022/11/11 07:49:38;;;;;;;8.55;3.35;;;;;;;21.52;99.84;102091.00;2088174;28;20049;-74
2022/11/11 07:51:19;;;;;;;12.48;4.10;;;;;;;21.72;96.05;102086.34;2099857;28;20148;-74
2022/11/11 07:53:02;;;;;;;10.73;4.07;;;;;;;21.83;94.19;102092.50;2096591;28;20595;-75
2022/11/11 07:54:42;;;;;;;11.25;4.30;;;;;;;21.71;92.16;102084.56;2105330;28;20052;-75
2022/11/11 07:56:24;;;;;;;9.40;3.83;;;;;;;21.46;92.00;102088.34;2096410;28;20759;-74
2022/11/11 07:58:05;;;;;;;9.37;3.60;;;;;;;21.07;91.30;102078.72;2098543;28;20496;-74
2022/11/11 07:59:46;;;;;;;11.02;4.25;;;;;;;20.72;91.70;102081.63;2096490;28;20285;-74
2022/11/11 08:01:27;;;;;;;8.80;3.80;;;;;;;20.46;92.23;102081.75;2088494;28;20563;-74
2022/11/11 08:03:08;;;;;;;11.90;3.83;;;;;;;20.34;92.34;102079.13;2103088;28;20139;-74
2022/11/11 08:04:48;;;;;;;11.70;3.72;;;;;;;20.60;92.53;102079.91;2102453;28;20052;-74
2022/11/11 08:06:30;;;;;;;8.90;3.95;;;;;;;20.84;91.80;102086.94;2096440;28;20052;-74
2022/11/11 08:08:12;;;;;;;10.80;5.07;;;;;;;20.85;90.41;102085.16;2095318;28;20257;-74
2022/11/11 08:09:53;;;;;;;;;;;;;;;20.65;90.76;102079.88;2097399;28;20079;-74
2022/11/11 08:13:42;;;;;;;11.75;4.60;;;;;;;20.12;93.47;102091.66;2094839;28;20045;-73
2022/11/11 08:15:23;;;;;;;9.48;4.63;;;;;;;19.88;94.27;102091.72;2094406;28;20428;-73
2022/11/11 08:17:04;;;;;;;10.18;4.50;;;;;;;19.84;96.37;102101.53;2094020;28;20129;-73
2022/11/11 08:18:45;;;;;;;10.07;4.50;;;;;;;19.88;96.20;102097.06;2091128;28;20621;-73
2022/11/11 08:20:26;;;;;;;12.23;4.43;;;;;;;19.94;96.37;102097.06;2096955;28;20071;-72
2022/11/11 08:22:07;;;;;;;15.30;5.15;;;;;;;20.08;95.23;102097.03;2096968;28;20538;-73
2022/11/11 08:23:50;;;;;;;9.25;3.80;;;;;;;20.03;93.14;102101.50;2088735;28;20052;-73
2022/11/11 08:25:31;;;;;;;8.40;3.83;;;;;;;19.90;92.07;102097.94;2096447;28;20062;-74
2022/11/11 08:27:13;;;;;;;13.50;5.60;;;;;;;19.83;91.46;102097.06;2096382;28;20082;-73
2022/11/11 08:28:53;;;;;;;9.55;4.05;;;;;;;19.86;91.47;102093.50;2098135;28;20097;-73
2022/11/11 08:30:34;;;;;;;12.32;4.20;;;;;;;19.98;91.33;102095.25;2098867;28;20055;-73
2022/11/11 08:32:15;;;;;;;8.52;4.43;;;;;;;20.02;91.15;102091.69;2102543;28;20040;-74
2022/11/11 08:33:56;;;;;;;13.05;4.75;;;;;;;20.02;91.26;102094.38;2095951;28;20040;-73
2022/11/11 08:35:37;;;;;;;10.40;4.15;;;;;;;19.91;91.12;102089.00;2099660;28;20087;-73
2022/11/11 08:37:18;;;;;;;8.77;3.85;;;;;;;19.77;90.37;102094.38;2091304;28;20137;-73
2022/11/11 08:39:00;;;;;;;10.77;5.05;;;;;;;19.66;90.34;102093.50;2088153;28;20088;-73
2022/11/11 08:40:41;;;;;;;;;;;;;;;19.57;90.82;102097.97;2096502;28;20048;-74
2022/11/11 08:42:22;;;;;;;13.48;6.90;;;;;;;19.55;91.71;102097.09;2097447;28;20392;-74
2022/11/11 08:44:03;;;;;;;13.50;5.25;;;;;;;19.66;93.34;102093.50;2094106;28;20155;-74
2022/11/11 08:45:44;;;;;;;10.70;4.60;;;;;;;19.67;94.25;102092.63;2100791;28;20084;-73
2022/11/11 08:47:25;;;;;;;11.73;4.75;;;;;;;19.71;95.11;102094.41;2100088;28;20649;-72
2022/11/11 08:49:07;;;;;;;12.10;4.72;;;;;;;19.98;94.65;102100.63;2095312;28;20090;-72
2022/11/11 08:50:48;;;;;;;11.50;3.88;;;;;;;20.22;93.99;102101.44;2100688;28;20040;-73
2022/11/11 08:52:29;;;;;;;8.60;3.78;;;;;;;20.72;92.84;102094.16;2101069;28;20087;-74